Judson, Indiana
Current Conditions -  °F | °C
As of 7:35 AM on Saturday 25 Oct 2014 (Local Time) from K4I7 Reporting Station
Scattered Clouds Scattered Clouds  
Wind Chill: 54°   Ceiling: Unl
Heat Index: 54°   Visibility: 7mi
Dew Point: 50°   Wind: 0mph
Humidity: 88%   Direction: NA
Pressure: 29.98"   Gusts: NA
Location:  39.81°N, 87.14°W
Report Text: K4I7 251135Z AUTO 00000KT 7SM SCT023 12/10 A2998 RMK AO2
Loading
Personal Weather Stations






























Interactive Weather Map
Tropical Storm Tracking
New forecast layout! Learn more

10-Day Weather Forecast

Advertisements
Track Severe Weather on mobile